Pagrindinis puslapis
METAR-TAF:

METAR-TAF

Oro uostai :

Chignik, Aliaska, Jungtinės Amerikos Valstijos

platuma: 56-18-41N, ilguma: 158-22-24W, Aukštis: 6 m

Dabartinis oras

Ataskaita buvo paskelbta 23 minutes, ne 20:57 UTC
Ramus vėjas
Temperatūra 12°C
Drėgmė 58%
Slėgis 1009 hPa
Matomumas: 16.1 km
Apsiniaukę ne aukštis 3900 ft

METAR: PAJC 212057Z AUTO 00000KT 10SM OVC039 12/04 A2980 RMK AO2 SLP092 T01220039 58000

Laikas: 13:20 (21:20 UTC)


TAF: trūkstamas

Orai ataskaitas ir orų prognozės (METAR, TAF).

turimą stotys yra geltonos ir raudonos taškus žemėlapyje.

Perkelti pele per norėdami pamatyti stoties vardą.

Tada spustelėkite, norėdami matyti oro stebėjimo ir prognozės.

Norėdami pakeisti žemėlapį: spustelėkite ant žalios mygtukų su juodo kryžiaus žemyn,; žalią mygtuką su brūkšneliu, jei norite nutolinti; arba žalių rodyklių gretimoms žemėlapius.


METAR-TAF: